Terminal Aerodrome Forecast
Issued by NWS

Home | Current Version | Previous Version | Text Only | Print | Product List | Glossary On
Versions: 1 2 3 4 5 6 7 8 9 10 11 12 13 14 15 16 17 18 19 20 21 22 23 24 25
000
FTUS46 KSEW 032300 RRA
TAFSEA
TAF
KSEA 032341Z 0400/0506 30008KT P6SM SKC
     FM040300 VRB03KT P6SM SKC
     FM041400 19006KT P6SM SCT015 SCT250
     FM041800 21012KT P6SM SCT030 SCT080 SCT250
     FM042100 23013G22KT P6SM SCT035 SCT080
     FM050200 22012KT P6SM SCT035 BKN060 PROB30 0502/0506 -SHRA=

USA.gov is the U.S. government's official web portal to all federal, state and local government web resources and services.